Time;durP1;ratioP1;P1;durP2;ratioP2;P2;SDS_P1;SDS_P2;PMS_P1;PMS_P2;Temp;Humidity;BMP_temperature;BMP_pressure;BME280_temperature;BME280_humidity;BME280_pressure;Samples;Min_cycle;Max_cycle;Signal;HPM_P1;HPM_P2
2022/07/30 00:02:15;;;;;;;1999.90;999.90;;;;;;;17.34;100.00;95325.00;5094682;28;20189;-67
2022/07/30 00:04:41;;;;;;;1999.90;999.90;;;;;;;17.29;100.00;95316.50;5093840;28;20261;-65
2022/07/30 00:07:07;;;;;;;1999.90;999.90;;;;;;;17.27;100.00;95313.44;5094322;28;20215;-66
2022/07/30 00:09:32;;;;;;;1999.90;999.90;;;;;;;17.30;100.00;95309.78;5093803;28;20213;-68
2022/07/30 00:11:58;;;;;;;1999.90;999.90;;;;;;;17.31;100.00;95314.09;5093932;28;20184;-68
2022/07/30 00:14:23;;;;;;;1999.90;999.90;;;;;;;17.30;100.00;95296.75;5093765;28;20196;-67
2022/07/30 00:16:48;;;;;;;1999.90;999.90;;;;;;;17.33;100.00;95306.13;5093866;28;20577;-67
2022/07/30 00:19:14;;;;;;;1999.90;999.90;;;;;;;17.31;100.00;95305.81;5093759;28;20181;-70
2022/07/30 00:21:39;;;;;;;1999.90;999.90;;;;;;;17.34;100.00;95304.91;5093811;28;20187;-65
2022/07/30 00:24:05;;;;;;;1999.90;999.90;;;;;;;17.35;100.00;95309.22;5093728;28;20255;-69
2022/07/30 00:26:31;;;;;;;1999.90;999.90;;;;;;;17.34;100.00;95307.66;5093347;28;20269;-69
2022/07/30 00:28:57;;;;;;;1999.90;999.90;;;;;;;17.35;100.00;95323.78;5093945;28;20177;-66
2022/07/30 00:31:22;;;;;;;1999.90;999.90;;;;;;;17.39;100.00;95307.09;5093819;28;20193;-69
2022/07/30 00:33:47;;;;;;;1999.90;999.90;;;;;;;17.40;100.00;95308.63;5093581;28;20182;-68
2022/07/30 00:36:13;;;;;;;1999.90;999.90;;;;;;;17.40;100.00;95305.84;5093461;28;20187;-66
2022/07/30 00:38:38;;;;;;;1999.90;999.90;;;;;;;17.34;100.00;95304.91;5093620;28;20265;-67
2022/07/30 00:41:03;;;;;;;1999.90;999.90;;;;;;;17.31;100.00;95305.81;5093387;28;20279;-67
2022/07/30 00:43:29;;;;;;;1999.90;999.90;;;;;;;17.24;100.00;95303.28;5093143;28;20184;-69
2022/07/30 00:45:54;;;;;;;1999.90;999.90;;;;;;;17.21;100.00;95304.19;5093406;28;20279;-71
2022/07/30 00:48:19;;;;;;;1999.90;999.90;;;;;;;17.18;100.00;95299.56;5093415;28;20275;-71
2022/07/30 00:50:45;;;;;;;1999.90;999.90;;;;;;;17.08;100.00;95297.97;5093336;28;20192;-69
2022/07/30 00:53:10;;;;;;;1999.90;999.90;;;;;;;17.13;100.00;95294.63;5093094;28;20184;-71
2022/07/30 00:55:36;;;;;;;1999.90;999.90;;;;;;;17.15;100.00;95294.94;5093313;28;20179;-67
2022/07/30 00:58:01;;;;;;;1999.90;999.90;;;;;;;17.15;100.00;95300.47;5110185;28;20212;-67
2022/07/30 01:00:27;;;;;;;1999.90;999.90;;;;;;;17.22;100.00;95300.22;5092920;28;20185;-68
2022/07/30 01:02:53;;;;;;;1999.90;999.90;;;;;;;17.24;100.00;95289.50;5093115;28;20181;-70
2022/07/30 01:05:19;;;;;;;1999.90;999.90;;;;;;;17.24;100.00;95286.72;5092886;28;20184;-70
2022/07/30 01:07:45;;;;;;;1999.90;999.90;;;;;;;17.28;100.00;95292.88;5093055;28;20219;-71
2022/07/30 01:10:12;;;;;;;1999.90;999.90;;;;;;;17.25;100.00;95296.53;5093360;28;20245;-73
2022/07/30 01:12:38;;;;;;;1999.90;999.90;;;;;;;17.24;100.00;95292.25;5092988;28;20184;-72
2022/07/30 01:15:06;;;;;;;1999.90;999.90;;;;;;;17.21;100.00;95293.13;5093421;28;20222;-66
2022/07/30 01:17:33;;;;;;;1999.90;999.90;;;;;;;17.22;100.00;95294.72;5092838;28;20204;-67
2022/07/30 01:20:05;;;;;;;1999.90;999.90;;;;;;;17.24;100.00;95293.03;5072688;28;20220;-65
2022/07/30 01:22:36;;;;;;;1999.90;999.90;;;;;;;17.29;100.00;95284.16;5072445;28;20199;-65
2022/07/30 01:25:12;;;;;;;1999.90;999.90;;;;;;;17.36;100.00;95278.38;5072667;28;20205;-65
2022/07/30 01:27:51;;;;;;;1999.90;999.90;;;;;;;17.37;100.00;95281.94;5072391;28;20196;-67
2022/07/30 01:30:21;;;;;;;1999.90;999.90;;;;;;;17.36;100.00;95283.91;5072988;28;20196;-66
2022/07/30 01:32:49;;;;;;;1999.90;999.90;;;;;;;17.37;100.00;95279.16;5072949;28;20220;-66
2022/07/30 01:35:19;;;;;;;1999.90;999.90;;;;;;;17.39;100.00;95276.72;5072334;28;20707;-65
2022/07/30 01:37:46;;;;;;;1999.90;999.90;;;;;;;17.39;100.00;95276.72;5072146;28;20209;-66
2022/07/30 01:40:13;;;;;;;1999.90;999.90;;;;;;;17.37;100.00;95274.41;5072764;28;20284;-65
2022/07/30 01:42:40;;;;;;;1999.90;999.90;;;;;;;17.36;100.00;95283.13;5072479;28;20188;-66
2022/07/30 01:45:07;;;;;;;1999.90;999.90;;;;;;;17.36;100.00;95277.59;5072179;28;20275;-65
2022/07/30 01:47:35;;;;;;;1999.90;999.90;;;;;;;17.37;100.00;95273.66;5089340;28;20189;-65
2022/07/30 01:50:03;;;;;;;1999.90;999.90;;;;;;;17.38;100.00;95269.66;5072107;28;20189;-66
2022/07/30 01:52:31;;;;;;;1999.90;999.90;;;;;;;17.36;100.00;95269.31;5072470;28;20196;-65
2022/07/30 01:54:59;;;;;;;1999.90;999.90;;;;;;;17.39;100.00;95271.19;5072108;28;20190;-65
2022/07/30 01:57:25;;;;;;;1999.90;999.90;;;;;;;17.41;100.00;95268.75;5089329;28;20205;-64
2022/07/30 01:59:56;;;;;;;1999.90;999.90;;;;;;;17.41;100.00;95268.75;5072243;28;20192;-63
2022/07/30 02:02:22;;;;;;;1999.90;999.90;;;;;;;17.44;100.00;95265.13;5072150;28;20189;-66
2022/07/30 02:04:47;;;;;;;1999.90;999.90;;;;;;;17.44;100.00;95263.13;5072116;28;20189;-65
2022/07/30 02:07:22;;;;;;;1999.90;999.90;;;;;;;17.47;100.00;95266.97;5072084;28;20236;-66
2022/07/30 02:09:54;;;;;;;1999.90;999.90;;;;;;;17.47;100.00;95264.22;5071752;28;20212;-66
2022/07/30 02:12:27;;;;;;;1999.90;999.90;;;;;;;17.47;100.00;95272.50;5072626;28;20250;-67
2022/07/30 02:15:08;;;;;;;1999.90;999.90;;;;;;;17.49;100.00;95270.06;5072152;28;20193;-66
2022/07/30 02:17:41;;;;;;;1999.90;999.90;;;;;;;17.49;100.00;95270.06;5071889;28;20237;-65
2022/07/30 02:20:10;;;;;;;1999.90;999.90;;;;;;;17.50;100.00;95266.09;5073093;28;20246;-66
2022/07/30 02:22:38;;;;;;;1999.90;999.90;;;;;;;17.51;100.00;95257.34;5075548;28;20235;-67
2022/07/30 02:25:05;;;;;;;1999.90;999.90;;;;;;;17.52;100.00;95269.19;5092367;28;20284;-67
2022/07/30 02:27:34;;;;;;;1999.90;999.90;;;;;;;17.49;100.00;95281.13;5075293;28;20193;-64
2022/07/30 02:30:02;;;;;;;1999.90;999.90;;;;;;;17.52;100.00;95277.47;5075430;28;20192;-66
2022/07/30 02:32:32;;;;;;;1999.90;999.90;;;;;;;17.51;100.00;95278.66;5075319;28;20195;-75
2022/07/30 02:35:04;;;;;;;1999.90;999.90;;;;;;;17.56;100.00;95280.84;5075651;28;20299;-76
2022/07/30 02:37:31;;;;;;;1999.90;999.90;;;;;;;17.56;100.00;95280.84;5075941;28;20208;-75
2022/07/30 02:39:58;;;;;;;1999.90;999.90;;;;;;;17.50;100.00;95288.94;5075107;28;20221;-70
2022/07/30 02:42:25;;;;;;;1999.90;999.90;;;;;;;17.54;100.00;95277.75;5075094;28;20185;-75
2022/07/30 02:44:53;;;;;;;1999.90;999.90;;;;;;;17.52;100.00;95280.22;5092136;28;20185;-79
2022/07/30 02:47:21;;;;;;;1999.90;999.90;;;;;;;17.53;100.00;95290.03;5075381;28;20188;-67
2022/07/30 02:49:49;;;;;;;1999.90;999.90;;;;;;;17.53;100.00;95292.81;5075013;28;20315;-68
2022/07/30 02:52:16;;;;;;;1999.90;999.90;;;;;;;17.55;100.00;95302.16;5091952;28;20230;-67
2022/07/30 02:54:43;;;;;;;1999.90;999.90;;;;;;;17.55;100.00;95296.66;5075263;28;20189;-69
2022/07/30 02:57:10;;;;;;;1999.90;999.90;;;;;;;17.52;100.00;95297.53;5075001;28;20196;-69
2022/07/30 02:59:38;;;;;;;1999.90;999.90;;;;;;;17.49;100.00;95304.00;5075280;28;20214;-64
2022/07/30 03:02:06;;;;;;;1999.90;999.90;;;;;;;17.49;100.00;95298.47;5091677;28;20207;-68
2022/07/30 03:04:33;;;;;;;1999.90;999.90;;;;;;;17.48;100.00;95299.66;5074640;28;20342;-66
2022/07/30 03:06:59;;;;;;;1999.90;999.90;;;;;;;17.47;100.00;95297.34;5075213;28;20196;-62
2022/07/30 03:09:26;;;;;;;1999.90;999.90;;;;;;;17.41;100.00;95293.63;5074564;28;20288;-65
2022/07/30 03:11:54;;;;;;;1999.90;999.90;;;;;;;17.42;100.00;95286.91;5092114;28;20193;-63
2022/07/30 03:14:20;;;;;;;1999.90;999.90;;;;;;;17.41;100.00;95288.09;5075015;28;20193;-67
2022/07/30 03:16:50;;;;;;;1999.90;999.90;;;;;;;17.38;100.00;95291.75;5075042;28;20227;-62
2022/07/30 03:19:19;;;;;;;1999.90;999.90;;;;;;;17.37;100.00;95285.44;5074780;28;20187;-67
2022/07/30 03:21:45;;;;;;;1999.90;999.90;;;;;;;17.37;100.00;95288.22;5091394;28;20181;-64
2022/07/30 03:24:13;;;;;;;1999.90;999.90;;;;;;;17.38;100.00;95280.69;5074632;28;20592;-68
2022/07/30 03:26:40;;;;;;;1999.90;999.90;;;;;;;17.37;100.00;95284.69;5074269;28;20209;-66
2022/07/30 03:29:07;;;;;;;1999.90;999.90;;;;;;;17.37;100.00;95285.44;5074404;28;20272;-62
2022/07/30 03:31:34;;;;;;;1999.90;999.90;;;;;;;17.39;100.00;95294.06;5074284;28;20243;-65
2022/07/30 03:34:01;;;;;;;1999.90;999.90;;;;;;;17.43;100.00;95296.72;5074342;28;20181;-66
2022/07/30 03:36:29;;;;;;;1999.90;999.90;;;;;;;17.44;100.00;95309.31;5074620;28;20177;-63
2022/07/30 03:38:55;;;;;;;1999.90;999.90;;;;;;;17.49;100.00;95309.50;5091020;28;20209;-66
2022/07/30 03:41:22;;;;;;;1999.90;999.90;;;;;;;17.53;100.00;95309.38;5074184;28;20204;-65
2022/07/30 03:43:48;;;;;;;1999.90;999.90;;;;;;;17.51;100.00;95311.78;5074232;28;20646;-82
2022/07/30 03:46:15;;;;;;;1999.90;999.90;;;;;;;17.53;100.00;95326.72;5074082;28;20193;-66
2022/07/30 03:48:41;;;;;;;1999.90;999.90;;;;;;;17.54;100.00;95330.25;5073914;28;20198;-65
2022/07/30 03:51:09;;;;;;;1999.90;999.90;;;;;;;17.57;100.00;95337.63;5073997;28;20189;-67
2022/07/30 03:53:34;;;;;;;1999.90;999.90;;;;;;;17.60;100.00;95336.75;5074086;28;20191;-67
2022/07/30 03:56:01;;;;;;;1999.90;999.90;;;;;;;17.59;100.00;95346.25;5073965;28;20254;-68
2022/07/30 03:58:27;;;;;;;1999.90;999.90;;;;;;;17.57;100.00;95343.94;5090742;28;20208;-67
2022/07/30 04:00:52;;;;;;;1999.90;999.90;;;;;;;17.55;100.00;95345.59;5073764;28;20284;-64
2022/07/30 04:03:30;;;;;;;1999.90;999.90;;;;;;;17.56;100.00;95336.84;5074332;28;20242;-65
2022/07/30 04:05:56;;;;;;;1999.90;999.90;;;;;;;17.52;100.00;95340.97;5074211;28;20191;-74
2022/07/30 04:08:22;;;;;;;1999.90;999.90;;;;;;;17.53;100.00;95342.50;5073780;28;20224;-72
2022/07/30 04:10:49;;;;;;;1999.90;999.90;;;;;;;17.53;100.00;95353.56;5073847;28;20200;-73
2022/07/30 04:13:14;;;;;;;1999.90;999.90;;;;;;;17.54;100.00;95353.13;5073770;28;20225;-73
2022/07/30 04:15:53;;;;;;;1999.90;999.90;;;;;;;17.57;100.00;95360.50;5073779;28;20192;-74
2022/07/30 04:18:19;;;;;;;1999.90;999.90;;;;;;;17.61;100.00;95361.16;5074071;28;20205;-70
2022/07/30 04:20:47;;;;;;;1999.90;999.90;;;;;;;17.66;100.00;95368.09;5073618;28;20188;-67
2022/07/30 04:23:14;;;;;;;1999.90;999.90;;;;;;;17.73;100.00;95376.88;5073706;28;20199;-67
2022/07/30 04:25:42;;;;;;;1999.90;999.90;;;;;;;17.76;100.00;95389.03;5073967;28;20196;-67
2022/07/30 04:28:09;;;;;;;1999.90;999.90;;;;;;;17.76;100.00;95389.81;5073432;28;20645;-64
2022/07/30 04:30:34;;;;;;;1999.90;999.90;;;;;;;17.76;100.00;95394.53;5073361;28;20181;-66
2022/07/30 04:33:02;;;;;;;1999.90;999.90;;;;;;;17.79;100.00;95396.41;5074020;28;20241;-67
2022/07/30 04:35:32;;;;;;;1999.90;999.90;;;;;;;17.85;100.00;95397.38;5073193;28;20296;-65
2022/07/30 04:37:59;;;;;;;1999.90;999.90;;;;;;;17.88;100.00;95400.00;5073691;28;20227;-65
2022/07/30 04:40:24;;;;;;;1999.90;999.90;;;;;;;17.88;100.00;95410.31;5073329;28;20288;-74
2022/07/30 04:42:50;;;;;;;1999.90;999.90;;;;;;;17.98;100.00;95406.38;5073085;28;20271;-73
2022/07/30 04:45:18;;;;;;;1999.90;999.90;;;;;;;18.03;100.00;95423.16;5073198;28;20197;-68
2022/07/30 04:47:44;;;;;;;1999.90;999.90;;;;;;;18.12;100.00;95427.97;5073710;28;20189;-70
2022/07/30 04:50:11;;;;;;;1999.90;999.90;;;;;;;18.16;100.00;95431.38;5073009;28;20197;-69
2022/07/30 04:52:37;;;;;;;1999.90;999.90;;;;;;;18.20;100.00;95454.13;5089614;28;20189;-71
2022/07/30 04:55:06;;;;;;;1999.90;999.90;;;;;;;18.24;100.00;95463.84;5073550;28;20193;-70
2022/07/30 04:57:35;;;;;;;1999.90;999.90;;;;;;;18.32;100.00;95472.66;5072751;28;20205;-70
2022/07/30 05:00:00;;;;;;;1999.90;999.90;;;;;;;18.45;100.00;95489.97;5073163;28;20193;-64
2022/07/30 05:02:29;;;;;;;1999.90;999.90;;;;;;;18.50;100.00;95497.69;5072903;28;20187;-64
2022/07/30 05:04:56;;;;;;;1999.90;999.90;;;;;;;18.57;100.00;95509.25;5072808;28;20291;-63
2022/07/30 05:07:23;;;;;;;1999.90;999.90;;;;;;;18.67;100.00;95523.91;5089952;28;20185;-61
2022/07/30 05:09:48;;;;;;;1999.90;999.90;;;;;;;18.84;100.00;95528.03;5089753;28;20204;-62
2022/07/30 05:12:14;;;;;;;1999.90;999.90;;;;;;;18.90;100.00;95553.88;5072971;28;20204;-64
2022/07/30 05:14:40;;;;;;;1999.90;999.90;;;;;;;18.95;100.00;95575.44;5073405;28;20197;-63
2022/07/30 05:17:06;;;;;;;1999.90;999.90;;;;;;;19.09;100.00;95583.22;5072667;28;20221;-72
2022/07/30 05:19:32;;;;;;;1999.90;999.90;;;;;;;19.33;100.00;95598.13;5073437;28;20185;-78
2022/07/30 05:21:58;;;;;;;1999.90;999.90;;;;;;;19.38;100.00;95616.94;5073519;28;20189;-77
2022/07/30 05:24:23;;;;;;;1999.90;999.90;;;;;;;19.47;100.00;95641.91;5073559;28;20181;-74
2022/07/30 05:26:49;;;;;;;1999.90;999.90;;;;;;;19.64;100.00;95659.84;5072960;28;20184;-73
2022/07/30 05:29:14;;;;;;;1999.90;999.90;;;;;;;19.80;100.00;95672.69;5072907;28;20264;-78
2022/07/30 05:31:40;;;;;;;1999.90;999.90;;;;;;;19.74;100.00;95694.69;5072501;28;20184;-73
2022/07/30 05:34:06;;;;;;;1999.90;999.90;;;;;;;19.72;100.00;95696.38;5089210;28;20277;-62
2022/07/30 05:36:32;;;;;;;1999.90;999.90;;;;;;;19.76;100.00;95700.56;5072548;28;20248;-63
2022/07/30 05:38:58;;;;;;;1999.90;999.90;;;;;;;19.66;100.00;95710.03;5072368;28;20207;-63
2022/07/30 05:41:23;;;;;;;1999.90;999.90;;;;;;;19.71;100.00;95717.78;5072669;28;20274;-60
2022/07/30 05:43:49;;;;;;;1999.90;999.90;;;;;;;19.73;100.00;95725.66;5072099;28;20189;-60
2022/07/30 05:46:14;;;;;;;1999.90;999.90;;;;;;;19.77;100.00;95720.75;5072373;28;20235;-60
2022/07/30 05:48:39;;;;;;;1999.90;999.90;;;;;;;19.78;100.00;95734.16;5072383;28;20211;-65
2022/07/30 05:51:05;;;;;;;1999.90;999.90;;;;;;;19.85;100.00;95736.63;5073356;28;20177;-64
2022/07/30 05:53:31;;;;;;;1999.90;999.90;;;;;;;19.91;100.00;95754.22;5072374;28;20185;-60
2022/07/30 05:55:57;;;;;;;1999.90;999.90;;;;;;;20.11;100.00;95776.84;5076828;28;20236;-61
2022/07/30 05:58:22;;;;;;;1999.90;999.90;;;;;;;20.09;100.00;95793.13;5092597;28;20205;-63
2022/07/30 06:00:47;;;;;;;1999.90;999.90;;;;;;;20.10;100.00;95793.91;5075665;28;20189;-63
2022/07/30 06:03:13;;;;;;;1999.90;999.90;;;;;;;20.06;100.00;95798.84;5075661;28;20215;-62
2022/07/30 06:05:39;;;;;;;1999.90;999.90;;;;;;;19.94;100.00;95808.78;5075638;28;20192;-63
2022/07/30 06:08:04;;;;;;;1999.90;999.90;;;;;;;19.97;100.00;95802.31;5092534;28;20189;-61
2022/07/30 06:10:30;;;;;;;1999.90;999.90;;;;;;;19.98;100.00;95806.63;5075539;28;20216;-65
2022/07/30 06:12:55;;;;;;;1999.90;999.90;;;;;;;19.88;100.00;95798.72;5075574;28;20246;-62
2022/07/30 06:15:21;;;;;;;1999.90;999.90;;;;;;;19.89;100.00;95801.06;5076313;28;20193;-64
2022/07/30 06:17:47;;;;;;;1999.90;999.90;;;;;;;19.91;100.00;95803.34;5075427;28;20208;-63
2022/07/30 06:20:14;;;;;;;1999.90;999.90;;;;;;;20.09;100.00;95804.22;5075392;28;20221;-61
2022/07/30 06:22:39;;;;;;;1999.90;999.90;;;;;;;20.22;100.00;95807.72;5075814;28;20307;-60
2022/07/30 06:25:09;;;;;;;1999.90;999.90;;;;;;;20.42;100.00;95826.75;5075182;28;20193;-62
2022/07/30 06:27:35;;;;;;;1999.90;999.90;;;;;;;20.59;100.00;95836.38;5092286;28;20285;-59
2022/07/30 06:30:08;;;;;;;1999.90;999.90;;;;;;;21.00;100.00;95850.59;5075266;28;20204;-58
2022/07/30 06:32:34;;;;;;;1999.90;999.90;;;;;;;21.78;100.00;95887.00;5076348;28;20276;-61
2022/07/30 06:34:59;;;;;;;1999.90;999.90;;;;;;;22.25;100.00;95915.84;5091947;28;20220;-64
2022/07/30 06:37:25;;;;;;;1999.90;999.90;;;;;;;22.34;100.00;95924.19;5074920;28;20209;-63
2022/07/30 06:39:50;;;;;;;1999.90;999.90;;;;;;;21.75;100.00;95916.47;5075307;28;20200;-64
2022/07/30 06:42:16;;;;;;;1999.90;999.90;;;;;;;21.54;100.00;95909.03;5075181;28;20209;-63
2022/07/30 06:44:41;;;;;;;1999.90;999.90;;;;;;;21.19;100.00;95902.16;5074959;28;20186;-62
2022/07/30 06:47:07;;;;;;;1999.90;999.90;;;;;;;21.25;100.00;95900.34;5075641;28;20193;-62
2022/07/30 06:49:34;;;;;;;1999.90;999.90;;;;;;;21.28;100.00;95893.09;5075365;28;20275;-61
2022/07/30 06:51:59;;;;;;;1999.90;999.90;;;;;;;21.22;100.00;95901.25;5075930;28;20191;-60
2022/07/30 06:54:25;;;;;;;1999.90;999.90;;;;;;;21.14;100.00;95896.44;5074912;28;20193;-62
2022/07/30 06:56:50;;;;;;;1999.90;999.90;;;;;;;21.20;100.00;95902.97;5074989;28;20219;-59
2022/07/30 06:59:16;;;;;;;1999.90;999.90;;;;;;;21.11;100.00;95911.25;5074859;28;20188;-61
2022/07/30 07:01:41;;;;;;;1999.90;999.90;;;;;;;21.12;100.00;95913.56;5074525;28;20177;-59
2022/07/30 07:04:07;;;;;;;1999.90;999.90;;;;;;;21.13;100.00;95915.13;5075446;28;20188;-71
2022/07/30 07:06:32;;;;;;;1999.90;999.90;;;;;;;21.29;100.00;95914.88;5074343;28;20181;-59
2022/07/30 07:08:59;;;;;;;1999.90;999.90;;;;;;;21.80;100.00;95924.22;5091620;28;20205;-66
2022/07/30 07:11:24;;;;;;;1999.90;999.90;;;;;;;23.15;100.00;95958.63;5074427;28;20177;-69
2022/07/30 07:13:49;;;;;;;1999.90;999.90;;;;;;;24.42;100.00;95987.28;5074264;28;20181;-72
2022/07/30 07:16:15;;;;;;;1999.90;999.90;;;;;;;25.22;100.00;96021.28;5075074;28;20189;-70
2022/07/30 07:18:40;;;;;;;1999.90;999.90;;;;;;;25.44;100.00;96030.06;5074419;28;20212;-66
2022/07/30 07:21:07;;;;;;;1999.90;999.90;;;;;;;25.41;100.00;96024.69;5074709;28;20189;-69
2022/07/30 07:23:33;;;;;;;1999.90;999.90;;;;;;;27.11;100.00;96038.13;5074866;28;20193;-66
2022/07/30 07:25:59;;;;;;;1999.90;999.90;;;;;;;26.94;100.00;96011.94;5074353;28;20195;-60
2022/07/30 07:28:25;;;;;;;1999.90;999.90;;;;;;;27.00;100.00;96004.34;5074778;28;20200;-60
2022/07/30 07:30:50;;;;;;;1999.90;999.90;;;;;;;27.86;100.00;95513.31;5074626;28;20185;-62
2022/07/30 07:33:15;;;;;;;1999.90;999.90;;;;;;;27.65;100.00;95486.78;5091827;28;20185;-63
2022/07/30 07:35:41;;;;;;;1999.90;999.90;;;;;;;28.96;100.00;95483.25;5091240;28;20183;-62
2022/07/30 07:38:06;;;;;;;1999.90;999.90;;;;;;;30.63;100.00;95473.44;5074731;28;20205;-62
2022/07/30 07:40:32;;;;;;;1999.90;999.90;;;;;;;31.27;86.81;95475.09;5091127;28;20177;-67
2022/07/30 07:42:57;;;;;;;1999.90;999.90;;;;;;;31.86;78.26;95474.63;5074623;28;20185;-68
2022/07/30 07:45:22;;;;;;;1999.90;999.90;;;;;;;32.07;74.00;95461.38;5091804;28;20254;-60
2022/07/30 07:47:49;;;;;;;1999.90;999.90;;;;;;;31.81;74.28;95464.19;5074632;28;20271;-60
2022/07/30 07:50:15;;;;;;;1999.90;999.90;;;;;;;30.41;79.13;95462.47;5074013;28;20196;-60
2022/07/30 07:52:41;;;;;;;1999.90;999.90;;;;;;;31.11;77.52;95464.81;5074125;28;20189;-58
2022/07/30 07:55:07;;;;;;;1999.90;999.90;;;;;;;31.88;72.80;95452.25;5074055;28;20185;-59
2022/07/30 07:57:44;;;;;;;1999.90;999.90;;;;;;;33.04;68.19;95461.94;5091069;28;20204;-61
2022/07/30 08:00:13;;;;;;;1999.90;999.90;;;;;;;31.71;69.67;95463.06;5073879;28;20188;-63
2022/07/30 08:02:39;;;;;;;1999.90;999.90;;;;;;;31.82;69.27;95468.53;5073642;28;20185;-61
2022/07/30 08:05:05;;;;;;;1999.90;999.90;;;;;;;31.50;71.43;95459.31;5074180;28;20196;-60
2022/07/30 08:07:31;;;;;;;1999.90;999.90;;;;;;;31.09;73.18;95454.06;5073602;28;20276;-60
2022/07/30 08:09:56;;;;;;;1999.90;999.90;;;;;;;29.76;82.47;95453.44;5073662;28;20285;-62
2022/07/30 08:12:22;;;;;;;1999.90;999.90;;;;;;;31.85;71.80;95461.03;5073638;28;20193;-61
2022/07/30 08:14:48;;;;;;;1999.90;999.90;;;;;;;31.63;68.09;95470.66;5073886;28;20201;-60
2022/07/30 08:17:13;;;;;;;1999.90;999.90;;;;;;;33.23;62.88;95462.53;5073427;28;20201;-62
2022/07/30 08:19:38;;;;;;;1999.90;999.90;;;;;;;33.24;60.30;95469.69;5073006;28;20180;-63
2022/07/30 08:22:04;;;;;;;1999.90;999.90;;;;;;;33.39;57.95;95478.38;5074533;28;20181;-62
2022/07/30 08:24:29;;;;;;;1999.90;999.90;;;;;;;34.58;52.88;95468.53;5090314;28;20185;-63
2022/07/30 08:26:55;;;;;;;1999.90;999.90;;;;;;;34.17;54.12;95480.00;5090892;28;20189;-69
2022/07/30 08:29:20;;;;;;;1999.90;999.90;;;;;;;34.68;50.31;95471.59;5090155;28;20177;-69
2022/07/30 08:31:45;;;;;;;1999.90;999.90;;;;;;;35.44;48.42;95473.41;5073138;28;20280;-64
2022/07/30 08:34:12;;;;;;;1999.90;999.90;;;;;;;35.27;46.82;95470.31;5090618;28;20185;-66
2022/07/30 08:36:37;;;;;;;1999.90;999.90;;;;;;;36.07;43.78;95469.47;5074300;28;20182;-64
2022/07/30 08:39:03;;;;;;;1999.90;999.90;;;;;;;35.89;43.03;95476.31;5073621;28;20200;-61
2022/07/30 08:41:29;;;;;;;1999.90;999.90;;;;;;;36.57;41.20;95474.91;5073297;28;20181;-60
2022/07/30 08:43:58;;;;;;;1999.90;999.90;;;;;;;35.49;43.73;95475.31;5090248;28;20386;-59
2022/07/30 08:46:26;;;;;;;1999.90;999.90;;;;;;;34.08;48.30;95482.59;5073171;28;20185;-59
2022/07/30 08:48:53;;;;;;;1999.90;999.90;;;;;;;33.90;49.92;95477.91;5073064;28;20182;-60
2022/07/30 08:51:19;;;;;;;1999.90;999.90;;;;;;;34.30;47.32;95476.31;5073202;28;20177;-62
2022/07/30 08:53:45;;;;;;;1999.90;999.90;;;;;;;34.36;47.79;95474.06;5073188;28;20181;-61
2022/07/30 08:56:10;;;;;;;1999.90;999.90;;;;;;;35.10;46.88;95470.09;5073042;28;20272;-60
2022/07/30 08:58:36;;;;;;;1999.90;999.90;;;;;;;34.93;45.81;95475.53;5089746;28;20243;-61
2022/07/30 09:01:03;;;;;;;1999.90;999.90;;;;;;;34.63;46.53;95469.69;5073189;28;20186;-59
2022/07/30 09:03:29;;;;;;;1999.90;999.90;;;;;;;34.96;46.13;95477.25;5072777;28;20197;-63
2022/07/30 09:05:54;;;;;;;1999.90;999.90;;;;;;;36.28;41.22;95476.50;5072980;28;20188;-63
2022/07/30 09:08:19;;;;;;;1999.90;999.90;;;;;;;35.09;42.17;95471.41;5089461;28;20287;-62
2022/07/30 09:10:46;;;;;;;1999.90;999.90;;;;;;;35.20;42.03;95476.72;5090058;28;20181;-61
2022/07/30 09:13:40;;;;;;;1999.90;999.90;;;;;;;35.24;43.89;95471.44;5072707;28;20276;-68
2022/07/30 09:16:06;;;;;;;1999.90;999.90;;;;;;;35.98;40.76;95475.75;5072780;28;20181;-61
2022/07/30 09:18:39;;;;;;;1999.90;999.90;;;;;;;35.56;40.95;95475.34;5072690;28;20205;-61
2022/07/30 09:21:22;;;;;;;1999.90;999.90;;;;;;;35.83;38.87;95472.91;5072854;28;20185;-63
2022/07/30 09:24:06;;;;;;;1999.90;999.90;;;;;;;36.06;38.67;95467.97;5073014;28;20185;-60
2022/07/30 09:26:50;;;;;;;1999.90;999.90;;;;;;;35.93;38.19;95463.22;5072629;28;20181;-62
2022/07/30 09:29:24;;;;;;;1999.90;999.90;;;;;;;34.33;41.98;95467.44;5072413;28;20181;-67
2022/07/30 09:31:54;;;;;;;1999.90;999.90;;;;;;;33.59;44.79;95468.38;5072461;28;20177;-59
2022/07/30 09:34:27;;;;;;;1999.90;999.90;;;;;;;34.14;43.11;95491.69;5072569;28;20188;-65
2022/07/30 09:36:53;;;;;;;1999.90;999.90;;;;;;;34.92;41.73;95474.00;5089405;28;20185;-67
2022/07/30 09:39:35;;;;;;;1999.90;999.90;;;;;;;33.82;39.66;95478.59;5089272;28;20338;-67
2022/07/30 09:42:03;;;;;;;1999.90;999.90;;;;;;;33.09;42.70;95475.22;5072391;28;20240;-70
2022/07/30 09:44:29;;;;;;;1999.90;999.90;;;;;;;34.34;40.37;95477.47;5072721;28;20253;-71
2022/07/30 09:46:56;;;;;;;1999.90;999.90;;;;;;;34.41;41.46;95482.44;5072348;28;20188;-67
2022/07/30 09:49:27;;;;;;;1999.90;999.90;;;;;;;35.03;39.00;95479.34;5088921;28;20204;-66
2022/07/30 09:51:54;;;;;;;1999.90;999.90;;;;;;;35.23;39.24;95464.25;5072196;28;20196;-66
2022/07/30 09:54:19;;;;;;;1999.90;999.90;;;;;;;35.01;38.19;95482.00;5072161;28;20264;-64
2022/07/30 09:56:47;;;;;;;1999.90;999.90;;;;;;;35.36;37.58;95472.66;5072199;28;20216;-65
2022/07/30 09:59:27;;;;;;;1999.90;999.90;;;;;;;35.37;38.86;95465.63;5088648;28;20300;-66
2022/07/30 10:01:53;;;;;;;1999.90;999.90;;;;;;;35.92;37.82;95469.50;5089106;28;20185;-63
2022/07/30 10:04:24;;;;;;;1999.90;999.90;;;;;;;35.02;37.63;95484.25;5072018;28;20275;-61
2022/07/30 10:06:50;;;;;;;1999.90;999.90;;;;;;;35.09;38.08;95477.09;5089018;28;20185;-62
2022/07/30 10:09:25;;;;;;;1999.90;999.90;;;;;;;34.63;38.48;95469.69;5071999;28;20193;-66
2022/07/30 10:11:52;;;;;;;1999.90;999.90;;;;;;;35.77;36.62;95469.50;5089080;28;20188;-65
2022/07/30 10:14:18;;;;;;;1999.90;999.90;;;;;;;35.21;36.27;95478.28;5072296;28;20185;-64
2022/07/30 10:16:44;;;;;;;1999.90;999.90;;;;;;;35.55;36.85;95473.06;5088687;28;20197;-66
2022/07/30 10:19:11;;;;;;;1999.90;999.90;;;;;;;33.18;40.38;95471.91;5071929;28;20235;-63
2022/07/30 10:21:37;;;;;;;1999.90;999.90;;;;;;;32.05;42.36;95469.66;5071940;28;20189;-66
2022/07/30 10:24:03;;;;;;;1999.90;999.90;;;;;;;32.93;42.62;95467.09;5072325;28;20173;-62
2022/07/30 10:26:32;;;;;;;1999.90;999.90;;;;;;;32.59;43.40;95469.84;5071966;28;20189;-66
2022/07/30 10:28:58;;;;;;;1999.90;999.90;;;;;;;34.62;39.44;95462.50;5072751;28;20204;-63
2022/07/30 10:31:25;;;;;;;1999.90;999.90;;;;;;;33.72;38.67;95480.38;5088997;28;20185;-64
2022/07/30 10:33:50;;;;;;;1999.90;999.90;;;;;;;34.40;36.31;95468.81;5071703;28;20189;-62
2022/07/30 10:36:16;;;;;;;1999.90;999.90;;;;;;;33.45;37.23;95473.34;5071764;28;20238;-60
2022/07/30 10:38:44;;;;;;;1999.90;999.90;;;;;;;32.33;39.48;95472.72;5071516;28;20217;-61
2022/07/30 10:41:40;;;;;;;1999.90;999.90;;;;;;;31.42;43.49;95471.81;5073310;28;20185;-63
2022/07/30 10:44:20;;;;;;;1999.90;999.90;;;;;;;29.78;47.65;95470.56;5092537;28;20223;-63
2022/07/30 10:47:09;;;;;;;1999.90;999.90;;;;;;;30.91;43.93;95474.59;5074964;28;20196;-63
2022/07/30 10:49:35;;;;;;;1999.90;999.90;;;;;;;32.06;42.04;95474.00;5075201;28;20199;-61
2022/07/30 10:52:01;;;;;;;1999.90;999.90;;;;;;;33.37;39.51;95477.41;5075327;28;20192;-61